createdAt,value
2019-05-22T00:01:33.892Z,1.40
2019-05-22T00:04:10.769Z,0.00
2019-05-22T00:06:46.420Z,0.00
2019-05-22T00:09:33.040Z,0.10
2019-05-22T00:12:07.298Z,0.17
2019-05-22T00:14:38.167Z,1.07
2019-05-22T00:17:09.985Z,0.10
2019-05-22T00:19:49.275Z,0.20
2019-05-22T00:22:26.584Z,0.60
2019-05-22T00:24:58.567Z,0.00
2019-05-22T00:27:30.485Z,0.00
2019-05-22T00:30:11.579Z,0.00
2019-05-22T00:32:41.861Z,0.00
2019-05-22T00:35:11.399Z,0.60
2019-05-22T00:37:42.274Z,2.40
2019-05-22T00:40:22.556Z,1.27
2019-05-22T00:43:03.275Z,0.00
2019-05-22T00:45:25.012Z,0.60
2019-05-22T00:47:57.542Z,0.27
2019-05-22T00:50:44.717Z,0.40
2019-05-22T00:53:30.890Z,0.00
2019-05-22T00:56:18.847Z,1.37
2019-05-22T01:01:45.602Z,1.60
2019-05-22T01:04:16.845Z,1.00
2019-05-22T17:47:16.449Z,6.40
2019-05-22T17:52:34.992Z,5.93
2019-05-22T17:55:24.133Z,6.70
2019-05-22T17:57:54.515Z,6.40
2019-05-22T18:00:39.746Z,6.30
2019-05-22T18:03:09.810Z,6.60
2019-05-22T18:05:40.442Z,7.17
2019-05-22T18:08:10.165Z,7.63
2019-05-22T18:10:49.727Z,6.53
2019-05-22T18:13:19.845Z,6.43
2019-05-22T18:15:48.934Z,7.27
2019-05-22T18:18:18.515Z,6.90
2019-05-22T18:20:47.681Z,6.70
2019-05-22T18:23:19.996Z,6.67
2019-05-22T18:25:49.709Z,7.00
2019-05-22T18:28:19.125Z,7.13
2019-05-22T18:33:36.891Z,6.67
2019-05-22T18:36:06.183Z,7.27
2019-05-22T18:38:35.267Z,7.50
2019-05-22T18:41:05.571Z,7.80
2019-05-22T18:43:34.802Z,6.80
2019-05-22T18:46:04.625Z,7.20
2019-05-22T18:48:37.005Z,7.70
2019-05-22T18:56:26.531Z,7.50
2019-05-22T18:58:57.892Z,6.90
2019-05-22T19:04:11.279Z,6.93
2019-05-22T19:06:40.609Z,7.63
2019-05-22T19:09:11.539Z,7.30
2019-05-22T19:11:43.999Z,6.87
2019-05-22T19:14:13.245Z,6.20
2019-05-22T19:16:43.125Z,6.87
2019-05-22T19:19:12.831Z,6.63
2019-05-22T19:21:59.769Z,7.70
2019-05-22T19:24:37.900Z,7.77
2019-05-22T19:27:09.971Z,7.33
2019-05-22T19:29:39.780Z,7.37
2019-05-22T19:32:30.164Z,7.83
2019-05-22T19:35:02.851Z,7.93
2019-05-22T19:37:32.451Z,6.97
2019-05-22T19:40:15.668Z,7.43
2019-05-22T19:42:45.178Z,7.13
2019-05-22T19:45:14.658Z,8.73
2019-05-22T19:47:51.122Z,8.13
2019-05-22T19:51:04.270Z,8.43
2019-05-22T19:53:35.587Z,8.60
2019-05-22T19:56:05.829Z,8.37
2019-05-22T19:58:36.393Z,9.00
2019-05-22T20:01:14.861Z,9.30
2019-05-22T20:03:44.002Z,8.57
2019-05-22T20:06:13.316Z,8.87
2019-05-22T20:08:43.411Z,9.67
2019-05-22T20:14:01.641Z,9.47
2019-05-22T20:17:05.006Z,8.90
2019-05-22T20:19:34.150Z,11.83
2019-05-22T20:22:19.841Z,10.67
2019-05-22T20:24:49.064Z,10.90
2019-05-22T20:27:19.893Z,10.20
2019-05-22T20:29:51.627Z,10.47
2019-05-22T20:35:07.107Z,14.57
2019-05-22T20:37:36.135Z,11.00
2019-05-22T20:40:07.020Z,13.73
2019-05-22T20:45:17.393Z,10.40
2019-05-22T20:47:46.839Z,11.37
2019-05-22T20:50:16.772Z,10.60
2019-05-22T20:52:46.107Z,11.93
2019-05-22T20:55:16.399Z,11.57
2019-05-22T20:57:48.545Z,11.90
2019-05-22T21:00:20.108Z,13.10
2019-05-22T21:05:39.949Z,11.93
2019-05-22T21:08:12.231Z,11.63
2019-05-22T21:11:01.376Z,9.97
2019-05-22T21:13:33.793Z,10.17
2019-05-22T21:16:04.963Z,10.27
2019-05-22T21:18:44.576Z,9.43
2019-05-22T21:21:25.136Z,9.93
2019-05-22T21:24:09.462Z,9.90
2019-05-22T21:26:28.646Z,8.80
2019-05-22T21:28:57.649Z,8.97
2019-05-22T21:31:40.062Z,9.80
2019-05-22T21:34:09.209Z,8.67
2019-05-22T21:36:38.721Z,10.40
2019-05-22T21:39:11.794Z,10.40
2019-05-22T21:41:50.291Z,11.03
2019-05-22T21:44:19.641Z,10.50
2019-05-22T21:46:48.765Z,10.73
2019-05-22T21:49:19.250Z,11.03
2019-05-22T21:51:57.959Z,10.57
2019-05-22T21:57:01.442Z,10.03
2019-05-22T21:59:32.826Z,10.97
2019-05-22T22:02:20.201Z,12.17
2019-05-22T22:04:50.399Z,9.67
2019-05-22T22:07:21.205Z,9.00
2019-05-22T22:09:51.016Z,10.87
2019-05-22T22:12:29.746Z,10.87
2019-05-22T22:14:59.269Z,12.43
2019-05-22T22:17:29.632Z,10.53
2019-05-22T22:19:58.645Z,10.60
2019-05-22T22:22:36.993Z,10.37
2019-05-22T22:25:06.666Z,9.50
2019-05-22T22:27:35.984Z,10.13
2019-05-22T22:30:10.005Z,9.47
2019-05-22T22:32:50.858Z,9.63
2019-05-22T22:35:20.756Z,10.43
2019-05-22T22:37:50.038Z,10.27
2019-05-22T22:40:22.625Z,9.77
2019-05-22T22:43:03.397Z,10.90
2019-05-22T22:46:02.210Z,10.10
2019-05-22T22:48:37.004Z,11.50
2019-05-22T22:51:09.825Z,10.83
2019-05-22T22:53:49.054Z,11.33
2019-05-22T22:56:18.798Z,11.03
2019-05-22T22:58:48.441Z,11.33
2019-05-22T23:01:26.209Z,10.53
2019-05-22T23:06:42.717Z,10.27
2019-05-22T23:09:12.833Z,11.47
2019-05-22T23:11:43.489Z,12.33
2019-05-22T23:14:22.994Z,11.70
2019-05-22T23:16:52.791Z,12.07
2019-05-22T23:19:33.521Z,11.97
2019-05-22T23:24:57.763Z,11.63
2019-05-22T23:27:29.107Z,12.80
2019-05-22T23:29:59.789Z,12.30
2019-05-22T23:35:13.995Z,14.40
2019-05-22T23:37:44.263Z,13.27
2019-05-22T23:40:19.634Z,13.90
2019-05-22T23:45:35.652Z,13.10
2019-05-22T23:48:13.920Z,14.70
2019-05-22T23:50:44.665Z,14.73
2019-05-22T23:53:23.907Z,13.40
2019-05-22T23:55:56.732Z,15.57
2019-05-22T23:58:29.165Z,13.87
